sensor_id;sensor_type;location;lat;lon;timestamp;pressure;altitude;pressure_sealevel;temperature;humidity
72570;BME280;60594;50.204;8.844;2023-07-13T00:00:47;99824.09;;;19.32;57.54
72570;BME280;60594;50.204;8.844;2023-07-13T00:03:33;99829.84;;;19.29;57.65
72570;BME280;60594;50.204;8.844;2023-07-13T00:06:01;99837.31;;;19.27;57.74
72570;BME280;60594;50.204;8.844;2023-07-13T00:08:30;99836.94;;;19.30;56.62
72570;BME280;60594;50.204;8.844;2023-07-13T00:11:02;99835.53;;;19.34;57.38
72570;BME280;60594;50.204;8.844;2023-07-13T00:13:30;99840.94;;;19.34;57.21
72570;BME280;60594;50.204;8.844;2023-07-13T00:15:58;99845.53;;;19.34;56.87
72570;BME280;60594;50.204;8.844;2023-07-13T00:18:24;99849.59;;;19.44;56.04
72570;BME280;60594;50.204;8.844;2023-07-13T00:20:52;99854.38;;;19.42;56.25
72570;BME280;60594;50.204;8.844;2023-07-13T00:23:18;99845.88;;;19.45;57.39
72570;BME280;60594;50.204;8.844;2023-07-13T00:25:45;99850.91;;;19.48;56.13
72570;BME280;60594;50.204;8.844;2023-07-13T00:28:12;99848.56;;;19.45;57.22
72570;BME280;60594;50.204;8.844;2023-07-13T00:30:38;99855.28;;;19.49;56.49
72570;BME280;60594;50.204;8.844;2023-07-13T00:33:05;99855.50;;;19.48;56.69
72570;BME280;60594;50.204;8.844;2023-07-13T00:35:32;99861.06;;;19.32;57.20
72570;BME280;60594;50.204;8.844;2023-07-13T00:37:59;99859.03;;;19.34;57.04
72570;BME280;60594;50.204;8.844;2023-07-13T00:40:26;99851.66;;;19.28;58.61
72570;BME280;60594;50.204;8.844;2023-07-13T00:42:53;99854.06;;;19.23;58.21
72570;BME280;60594;50.204;8.844;2023-07-13T00:47:46;99863.13;;;19.30;54.90
72570;BME280;60594;50.204;8.844;2023-07-13T00:50:14;99859.84;;;19.34;54.84
72570;BME280;60594;50.204;8.844;2023-07-13T00:52:46;99859.97;;;19.41;55.10
72570;BME280;60594;50.204;8.844;2023-07-13T00:55:14;99854.38;;;19.42;54.78
72570;BME280;60594;50.204;8.844;2023-07-13T00:57:43;99862.84;;;19.39;54.93
72570;BME280;60594;50.204;8.844;2023-07-13T01:00:11;99862.50;;;19.42;55.31
72570;BME280;60594;50.204;8.844;2023-07-13T01:02:39;99861.09;;;19.46;53.83
72570;BME280;60594;50.204;8.844;2023-07-13T01:05:18;99860.97;;;19.54;53.41
72570;BME280;60594;50.204;8.844;2023-07-13T01:07:48;99859.09;;;19.55;54.58
72570;BME280;60594;50.204;8.844;2023-07-13T01:10:16;99856.19;;;19.56;53.97
72570;BME280;60594;50.204;8.844;2023-07-13T01:12:43;99860.91;;;19.48;54.73
72570;BME280;60594;50.204;8.844;2023-07-13T01:15:41;99859.88;;;19.49;54.31
72570;BME280;60594;50.204;8.844;2023-07-13T01:18:13;99863.38;;;19.49;53.15
72570;BME280;60594;50.204;8.844;2023-07-13T01:20:46;99857.59;;;19.52;52.90
72570;BME280;60594;50.204;8.844;2023-07-13T01:23:13;99864.78;;;19.45;54.54
72570;BME280;60594;50.204;8.844;2023-07-13T01:25:40;99859.38;;;19.45;54.07
72570;BME280;60594;50.204;8.844;2023-07-13T01:28:08;99859.56;;;19.44;55.04
72570;BME280;60594;50.204;8.844;2023-07-13T01:30:40;99857.81;;;19.36;54.54
72570;BME280;60594;50.204;8.844;2023-07-13T01:33:07;99854.88;;;19.23;55.76
72570;BME280;60594;50.204;8.844;2023-07-13T01:35:34;99856.78;;;19.23;54.55
72570;BME280;60594;50.204;8.844;2023-07-13T01:38:01;99849.47;;;19.23;54.67
72570;BME280;60594;50.204;8.844;2023-07-13T01:40:29;99854.88;;;19.23;54.29
72570;BME280;60594;50.204;8.844;2023-07-13T01:42:58;99854.81;;;19.17;55.85
72570;BME280;60594;50.204;8.844;2023-07-13T01:45:25;99859.00;;;19.19;54.31
72570;BME280;60594;50.204;8.844;2023-07-13T01:47:51;99858.34;;;19.17;54.74
72570;BME280;60594;50.204;8.844;2023-07-13T01:50:18;99856.09;;;19.06;55.27
72570;BME280;60594;50.204;8.844;2023-07-13T01:52:44;99863.63;;;19.11;54.90
72570;BME280;60594;50.204;8.844;2023-07-13T01:55:11;99858.72;;;19.14;54.35
72570;BME280;60594;50.204;8.844;2023-07-13T01:57:37;99864.97;;;19.15;54.24
72570;BME280;60594;50.204;8.844;2023-07-13T02:00:06;99864.56;;;19.03;55.83
72570;BME280;60594;50.204;8.844;2023-07-13T02:02:42;99868.50;;;19.01;54.93
72570;BME280;60594;50.204;8.844;2023-07-13T02:05:12;99866.72;;;19.08;54.68
72570;BME280;60594;50.204;8.844;2023-07-13T02:07:38;99876.28;;;18.96;55.28
72570;BME280;60594;50.204;8.844;2023-07-13T02:10:06;99866.78;;;18.85;55.28
72570;BME280;60594;50.204;8.844;2023-07-13T02:12:34;99863.31;;;18.77;56.87
72570;BME280;60594;50.204;8.844;2023-07-13T02:15:01;99875.06;;;18.69;57.43
72570;BME280;60594;50.204;8.844;2023-07-13T02:17:28;99871.84;;;18.66;55.60
72570;BME280;60594;50.204;8.844;2023-07-13T02:19:55;99880.31;;;18.63;56.99
72570;BME280;60594;50.204;8.844;2023-07-13T02:22:21;99883.88;;;18.63;57.22
72570;BME280;60594;50.204;8.844;2023-07-13T02:24:49;99870.66;;;18.68;54.81
72570;BME280;60594;50.204;8.844;2023-07-13T02:27:19;99882.00;;;18.64;56.67
72570;BME280;60594;50.204;8.844;2023-07-13T02:29:45;99884.53;;;18.65;58.06
72570;BME280;60594;50.204;8.844;2023-07-13T02:32:12;99878.53;;;18.55;57.59
72570;BME280;60594;50.204;8.844;2023-07-13T02:34:41;99887.34;;;18.49;59.07
72570;BME280;60594;50.204;8.844;2023-07-13T02:37:08;99889.75;;;18.44;58.01
72570;BME280;60594;50.204;8.844;2023-07-13T02:39:37;99892.09;;;18.47;56.64
72570;BME280;60594;50.204;8.844;2023-07-13T02:42:04;99883.03;;;18.40;57.02
72570;BME280;60594;50.204;8.844;2023-07-13T02:44:30;99883.59;;;18.36;56.28
72570;BME280;60594;50.204;8.844;2023-07-13T02:46:57;99885.44;;;18.35;56.47
72570;BME280;60594;50.204;8.844;2023-07-13T02:49:24;99883.41;;;18.37;56.58
72570;BME280;60594;50.204;8.844;2023-07-13T02:51:51;99889.25;;;18.41;55.17
72570;BME280;60594;50.204;8.844;2023-07-13T02:54:18;99885.94;;;18.39;56.61
72570;BME280;60594;50.204;8.844;2023-07-13T02:56:44;99893.53;;;18.35;55.47
72570;BME280;60594;50.204;8.844;2023-07-13T02:59:11;99895.09;;;18.30;57.08
72570;BME280;60594;50.204;8.844;2023-07-13T03:01:38;99890.66;;;18.37;54.35
72570;BME280;60594;50.204;8.844;2023-07-13T03:04:05;99902.28;;;18.37;56.15
72570;BME280;60594;50.204;8.844;2023-07-13T03:06:34;99906.03;;;18.28;55.78
72570;BME280;60594;50.204;8.844;2023-07-13T03:09:01;99908.06;;;18.26;55.74
72570;BME280;60594;50.204;8.844;2023-07-13T03:11:30;99904.84;;;18.31;56.05
72570;BME280;60594;50.204;8.844;2023-07-13T03:14:07;99909.72;;;18.35;56.48
72570;BME280;60594;50.204;8.844;2023-07-13T03:16:36;99913.75;;;18.31;55.68
72570;BME280;60594;50.204;8.844;2023-07-13T03:19:03;99910.41;;;18.29;57.21
72570;BME280;60594;50.204;8.844;2023-07-13T03:21:30;99920.84;;;18.32;57.52
72570;BME280;60594;50.204;8.844;2023-07-13T03:23:57;99917.66;;;18.29;57.55
72570;BME280;60594;50.204;8.844;2023-07-13T03:26:23;99922.38;;;18.35;57.58
72570;BME280;60594;50.204;8.844;2023-07-13T03:28:50;99918.66;;;18.36;57.25
72570;BME280;60594;50.204;8.844;2023-07-13T03:31:26;99925.88;;;18.43;59.26
72570;BME280;60594;50.204;8.844;2023-07-13T03:33:55;99930.06;;;18.46;62.17
72570;BME280;60594;50.204;8.844;2023-07-13T03:36:24;99927.72;;;18.43;56.05
72570;BME280;60594;50.204;8.844;2023-07-13T03:38:58;99925.03;;;18.43;54.67
72570;BME280;60594;50.204;8.844;2023-07-13T03:41:29;99920.84;;;18.32;56.40
72570;BME280;60594;50.204;8.844;2023-07-13T03:43:56;99924.38;;;18.33;54.24
72570;BME280;60594;50.204;8.844;2023-07-13T03:46:25;99932.34;;;18.26;56.37
72570;BME280;60594;50.204;8.844;2023-07-13T03:48:51;99947.34;;;18.29;56.71
72570;BME280;60594;50.204;8.844;2023-07-13T03:51:18;99941.47;;;18.25;54.75
72570;BME280;60594;50.204;8.844;2023-07-13T03:53:47;99940.44;;;18.26;54.18
72570;BME280;60594;50.204;8.844;2023-07-13T03:56:17;99942.00;;;18.21;54.41
72570;BME280;60594;50.204;8.844;2023-07-13T03:58:46;99945.41;;;18.15;53.46
72570;BME280;60594;50.204;8.844;2023-07-13T04:01:20;99943.91;;;18.12;56.81
72570;BME280;60594;50.204;8.844;2023-07-13T04:03:47;99942.41;;;18.10;54.64
72570;BME280;60594;50.204;8.844;2023-07-13T04:06:18;99945.78;;;18.04;55.64
72570;BME280;60594;50.204;8.844;2023-07-13T04:08:49;99954.31;;;17.85;58.28
72570;BME280;60594;50.204;8.844;2023-07-13T04:11:17;99946.09;;;17.78;58.48
72570;BME280;60594;50.204;8.844;2023-07-13T04:13:44;99951.19;;;17.73;62.83
72570;BME280;60594;50.204;8.844;2023-07-13T04:16:13;99956.78;;;17.64;61.97
72570;BME280;60594;50.204;8.844;2023-07-13T04:18:39;99953.44;;;17.54;59.97
72570;BME280;60594;50.204;8.844;2023-07-13T04:21:08;99953.94;;;17.49;60.86
72570;BME280;60594;50.204;8.844;2023-07-13T04:23:36;99955.47;;;17.44;60.83
72570;BME280;60594;50.204;8.844;2023-07-13T04:26:04;99955.16;;;17.31;59.63
72570;BME280;60594;50.204;8.844;2023-07-13T04:28:30;99959.34;;;17.33;61.22
72570;BME280;60594;50.204;8.844;2023-07-13T04:30:57;99961.88;;;17.35;62.31
72570;BME280;60594;50.204;8.844;2023-07-13T04:33:24;99964.75;;;17.33;63.22
72570;BME280;60594;50.204;8.844;2023-07-13T04:35:51;99963.41;;;17.29;63.95
72570;BME280;60594;50.204;8.844;2023-07-13T04:38:24;99958.19;;;17.28;63.08
72570;BME280;60594;50.204;8.844;2023-07-13T04:40:51;99954.81;;;17.26;64.34
72570;BME280;60594;50.204;8.844;2023-07-13T04:43:18;99959.19;;;17.27;63.07
72570;BME280;60594;50.204;8.844;2023-07-13T04:45:45;99950.59;;;17.23;64.59
72570;BME280;60594;50.204;8.844;2023-07-13T04:48:12;99960.34;;;17.24;64.10
72570;BME280;60594;50.204;8.844;2023-07-13T04:50:38;99953.81;;;17.19;64.82
72570;BME280;60594;50.204;8.844;2023-07-13T04:53:06;99953.63;;;17.20;65.42
72570;BME280;60594;50.204;8.844;2023-07-13T04:55:33;99966.44;;;17.18;66.71
72570;BME280;60594;50.204;8.844;2023-07-13T04:57:59;99964.09;;;17.15;67.01
72570;BME280;60594;50.204;8.844;2023-07-13T05:00:26;99963.25;;;17.15;67.66
72570;BME280;60594;50.204;8.844;2023-07-13T05:02:54;99966.63;;;17.09;65.87
72570;BME280;60594;50.204;8.844;2023-07-13T05:05:21;99958.03;;;16.97;61.26
72570;BME280;60594;50.204;8.844;2023-07-13T05:07:48;99956.38;;;17.04;61.92
72570;BME280;60594;50.204;8.844;2023-07-13T05:10:15;99961.41;;;17.15;65.13
72570;BME280;60594;50.204;8.844;2023-07-13T05:12:42;99963.59;;;17.20;61.35
72570;BME280;60594;50.204;8.844;2023-07-13T05:15:10;99963.75;;;17.26;65.27
72570;BME280;60594;50.204;8.844;2023-07-13T05:17:37;99965.06;;;17.38;59.14
72570;BME280;60594;50.204;8.844;2023-07-13T05:20:06;99970.09;;;17.49;58.60
72570;BME280;60594;50.204;8.844;2023-07-13T05:22:33;99967.75;;;17.54;64.53
72570;BME280;60594;50.204;8.844;2023-07-13T05:25:04;99973.63;;;17.58;64.12
72570;BME280;60594;50.204;8.844;2023-07-13T05:27:31;99975.31;;;17.59;59.28
72570;BME280;60594;50.204;8.844;2023-07-13T05:29:57;99974.16;;;17.37;59.98
72570;BME280;60594;50.204;8.844;2023-07-13T05:32:24;99976.50;;;17.56;58.34
72570;BME280;60594;50.204;8.844;2023-07-13T05:34:50;99976.81;;;17.69;60.84
72570;BME280;60594;50.204;8.844;2023-07-13T05:37:17;99974.78;;;17.63;59.10
72570;BME280;60594;50.204;8.844;2023-07-13T05:39:43;99982.19;;;17.61;59.50
72570;BME280;60594;50.204;8.844;2023-07-13T05:42:10;99983.66;;;17.80;58.33
72570;BME280;60594;50.204;8.844;2023-07-13T05:44:36;99975.72;;;17.86;58.32
72570;BME280;60594;50.204;8.844;2023-07-13T05:47:03;99982.38;;;18.06;57.12
72570;BME280;60594;50.204;8.844;2023-07-13T05:49:29;99988.88;;;18.20;57.44
72570;BME280;60594;50.204;8.844;2023-07-13T05:51:57;99988.50;;;18.31;57.67
72570;BME280;60594;50.204;8.844;2023-07-13T05:54:23;99983.25;;;18.37;57.07
72570;BME280;60594;50.204;8.844;2023-07-13T05:56:50;99986.56;;;18.47;57.21
72570;BME280;60594;50.204;8.844;2023-07-13T05:59:17;99986.50;;;18.55;54.34
72570;BME280;60594;50.204;8.844;2023-07-13T06:01:44;99986.81;;;18.60;55.54
72570;BME280;60594;50.204;8.844;2023-07-13T06:04:10;99985.59;;;18.63;55.42
72570;BME280;60594;50.204;8.844;2023-07-13T06:06:37;99988.63;;;18.68;54.78
72570;BME280;60594;50.204;8.844;2023-07-13T06:09:03;99980.16;;;18.71;55.31
72570;BME280;60594;50.204;8.844;2023-07-13T06:11:30;99989.88;;;18.80;55.22
72570;BME280;60594;50.204;8.844;2023-07-13T06:13:57;99996.25;;;18.87;52.80
72570;BME280;60594;50.204;8.844;2023-07-13T06:16:23;99991.97;;;18.92;53.88
72570;BME280;60594;50.204;8.844;2023-07-13T06:18:50;99997.66;;;18.97;54.63
72570;BME280;60594;50.204;8.844;2023-07-13T06:21:19;99991.72;;;19.02;53.12
72570;BME280;60594;50.204;8.844;2023-07-13T06:23:46;99988.31;;;19.08;53.02
72570;BME280;60594;50.204;8.844;2023-07-13T06:26:18;100002.56;;;19.16;52.05
72570;BME280;60594;50.204;8.844;2023-07-13T06:28:45;99997.47;;;19.21;50.72
72570;BME280;60594;50.204;8.844;2023-07-13T06:31:14;100000.47;;;19.26;51.37
72570;BME280;60594;50.204;8.844;2023-07-13T06:33:40;100008.91;;;19.31;51.64
72570;BME280;60594;50.204;8.844;2023-07-13T06:36:08;100008.63;;;19.41;50.65
72570;BME280;60594;50.204;8.844;2023-07-13T06:38:35;100003.78;;;19.51;51.11
72570;BME280;60594;50.204;8.844;2023-07-13T06:41:02;100000.81;;;19.60;50.34
72570;BME280;60594;50.204;8.844;2023-07-13T06:43:29;100018.81;;;19.68;49.44
72570;BME280;60594;50.204;8.844;2023-07-13T06:45:58;100015.75;;;19.71;50.07
72570;BME280;60594;50.204;8.844;2023-07-13T06:48:24;100017.06;;;19.75;50.19
72570;BME280;60594;50.204;8.844;2023-07-13T06:50:51;100012.78;;;19.80;49.33
72570;BME280;60594;50.204;8.844;2023-07-13T06:53:20;100012.84;;;19.87;48.64
72570;BME280;60594;50.204;8.844;2023-07-13T06:55:47;100023.50;;;19.88;48.75
72570;BME280;60594;50.204;8.844;2023-07-13T06:58:15;100014.53;;;19.88;48.09
72570;BME280;60594;50.204;8.844;2023-07-13T07:00:43;100015.38;;;19.88;49.00
72570;BME280;60594;50.204;8.844;2023-07-13T07:03:09;100008.84;;;19.97;48.83
72570;BME280;60594;50.204;8.844;2023-07-13T07:05:36;100021.06;;;20.08;48.61
72570;BME280;60594;50.204;8.844;2023-07-13T07:08:03;100024.91;;;20.14;48.77
72570;BME280;60594;50.204;8.844;2023-07-13T07:10:30;100021.84;;;20.17;48.38
72570;BME280;60594;50.204;8.844;2023-07-13T07:12:57;100022.09;;;20.22;47.76
72570;BME280;60594;50.204;8.844;2023-07-13T07:15:24;100024.63;;;20.23;47.97
72570;BME280;60594;50.204;8.844;2023-07-13T07:17:50;100027.78;;;20.27;48.92
72570;BME280;60594;50.204;8.844;2023-07-13T07:20:17;100024.78;;;20.36;49.43
72570;BME280;60594;50.204;8.844;2023-07-13T07:22:43;100023.59;;;20.39;49.09
72570;BME280;60594;50.204;8.844;2023-07-13T07:25:10;100028.69;;;20.48;48.74
72570;BME280;60594;50.204;8.844;2023-07-13T07:27:37;100028.88;;;20.47;48.17
72570;BME280;60594;50.204;8.844;2023-07-13T07:30:03;100029.16;;;20.52;48.61
72570;BME280;60594;50.204;8.844;2023-07-13T07:32:31;100032.22;;;20.63;48.06
72570;BME280;60594;50.204;8.844;2023-07-13T07:34:58;100033.69;;;20.66;47.16
72570;BME280;60594;50.204;8.844;2023-07-13T07:37:24;100031.91;;;20.73;46.88
72570;BME280;60594;50.204;8.844;2023-07-13T07:39:51;100027.78;;;20.77;46.91
72570;BME280;60594;50.204;8.844;2023-07-13T07:42:17;100035.75;;;20.85;46.08
72570;BME280;60594;50.204;8.844;2023-07-13T07:44:44;100038.94;;;20.88;45.96
72570;BME280;60594;50.204;8.844;2023-07-13T07:47:10;100036.25;;;20.88;45.66
72570;BME280;60594;50.204;8.844;2023-07-13T07:49:37;100038.53;;;20.91;46.64
72570;BME280;60594;50.204;8.844;2023-07-13T07:52:05;100046.78;;;20.98;45.85
72570;BME280;60594;50.204;8.844;2023-07-13T07:54:31;100041.38;;;20.98;46.44
72570;BME280;60594;50.204;8.844;2023-07-13T07:56:58;100029.09;;;21.02;44.81
72570;BME280;60594;50.204;8.844;2023-07-13T07:59:24;100038.34;;;21.07;46.63
72570;BME280;60594;50.204;8.844;2023-07-13T08:01:54;100037.63;;;21.20;46.52
72570;BME280;60594;50.204;8.844;2023-07-13T08:04:20;100028.69;;;21.26;45.36
72570;BME280;60594;50.204;8.844;2023-07-13T08:06:47;100034.56;;;21.29;46.54
72570;BME280;60594;50.204;8.844;2023-07-13T08:09:13;100035.53;;;21.43;45.83
72570;BME280;60594;50.204;8.844;2023-07-13T08:11:40;100026.00;;;21.53;45.24
72570;BME280;60594;50.204;8.844;2023-07-13T08:14:06;100025.22;;;21.59;43.44
72570;BME280;60594;50.204;8.844;2023-07-13T08:16:33;100035.25;;;21.65;43.89
72570;BME280;60594;50.204;8.844;2023-07-13T08:18:59;100028.13;;;21.58;43.58
72570;BME280;60594;50.204;8.844;2023-07-13T08:21:26;100041.69;;;21.58;42.54
72570;BME280;60594;50.204;8.844;2023-07-13T08:23:53;100038.78;;;21.59;43.54
72570;BME280;60594;50.204;8.844;2023-07-13T08:26:19;100034.06;;;21.68;43.75
72570;BME280;60594;50.204;8.844;2023-07-13T08:28:46;100036.66;;;21.76;43.01
72570;BME280;60594;50.204;8.844;2023-07-13T08:31:12;100036.44;;;21.77;43.26
72570;BME280;60594;50.204;8.844;2023-07-13T08:33:40;100035.69;;;21.90;44.16
72570;BME280;60594;50.204;8.844;2023-07-13T08:36:09;100035.28;;;21.93;42.54
72570;BME280;60594;50.204;8.844;2023-07-13T08:38:36;100035.50;;;21.91;42.21
72570;BME280;60594;50.204;8.844;2023-07-13T08:41:11;100034.91;;;22.02;42.19
72570;BME280;60594;50.204;8.844;2023-07-13T08:43:38;100029.38;;;22.17;40.59
72570;BME280;60594;50.204;8.844;2023-07-13T08:46:08;100032.31;;;22.22;42.27
72570;BME280;60594;50.204;8.844;2023-07-13T08:48:45;100034.06;;;22.42;42.63
72570;BME280;60594;50.204;8.844;2023-07-13T08:51:38;100031.28;;;22.63;41.61
72570;BME280;60594;50.204;8.844;2023-07-13T08:54:19;100033.19;;;22.69;40.39
72570;BME280;60594;50.204;8.844;2023-07-13T08:56:47;100040.22;;;22.57;40.45
72570;BME280;60594;50.204;8.844;2023-07-13T08:59:17;100035.63;;;22.58;39.68
72570;BME280;60594;50.204;8.844;2023-07-13T09:04:41;100019.13;;;22.59;40.53
72570;BME280;60594;50.204;8.844;2023-07-13T09:12:37;100027.97;;;22.81;40.98
72570;BME280;60594;50.204;8.844;2023-07-13T09:15:24;100019.66;;;23.02;40.83
72570;BME280;60594;50.204;8.844;2023-07-13T09:17:52;100017.63;;;23.37;40.71
72570;BME280;60594;50.204;8.844;2023-07-13T09:20:42;100034.34;;;23.60;37.95
72570;BME280;60594;50.204;8.844;2023-07-13T09:23:16;100022.84;;;23.38;39.66
72570;BME280;60594;50.204;8.844;2023-07-13T09:25:47;100015.94;;;23.42;39.35
72570;BME280;60594;50.204;8.844;2023-07-13T09:28:23;100010.91;;;23.39;38.36
72570;BME280;60594;50.204;8.844;2023-07-13T09:33:29;100023.84;;;23.89;38.39
72570;BME280;60594;50.204;8.844;2023-07-13T09:35:57;100018.84;;;23.93;38.06
72570;BME280;60594;50.204;8.844;2023-07-13T09:38:27;100008.13;;;24.04;37.11
72570;BME280;60594;50.204;8.844;2023-07-13T09:44:14;100017.28;;;24.23;36.45
72570;BME280;60594;50.204;8.844;2023-07-13T09:46:47;100009.19;;;23.97;38.04
72570;BME280;60594;50.204;8.844;2023-07-13T09:49:18;100015.91;;;23.88;37.66
72570;BME280;60594;50.204;8.844;2023-07-13T09:51:46;100011.91;;;23.90;37.85
72570;BME280;60594;50.204;8.844;2023-07-13T09:54:21;100014.41;;;24.05;38.25
72570;BME280;60594;50.204;8.844;2023-07-13T09:56:54;100016.91;;;24.13;37.46
72570;BME280;60594;50.204;8.844;2023-07-13T09:59:22;100017.34;;;23.90;37.96
72570;BME280;60594;50.204;8.844;2023-07-13T10:01:50;100018.00;;;23.79;37.61
72570;BME280;60594;50.204;8.844;2023-07-13T10:04:18;100010.88;;;23.85;37.31
72570;BME280;60594;50.204;8.844;2023-07-13T10:06:46;100010.88;;;24.04;37.29
72570;BME280;60594;50.204;8.844;2023-07-13T10:09:17;100014.97;;;24.20;37.07
72570;BME280;60594;50.204;8.844;2023-07-13T10:11:45;100011.78;;;24.36;38.92
72570;BME280;60594;50.204;8.844;2023-07-13T10:14:16;100014.59;;;24.67;36.84
72570;BME280;60594;50.204;8.844;2023-07-13T10:16:46;100005.97;;;25.07;36.12
72570;BME280;60594;50.204;8.844;2023-07-13T10:19:17;100008.69;;;25.38;34.03
72570;BME280;60594;50.204;8.844;2023-07-13T10:21:53;100002.44;;;25.31;34.02
72570;BME280;60594;50.204;8.844;2023-07-13T10:24:23;100012.56;;;25.49;34.27
72570;BME280;60594;50.204;8.844;2023-07-13T10:27:15;100008.81;;;25.50;33.68
72570;BME280;60594;50.204;8.844;2023-07-13T10:29:52;100008.81;;;25.19;33.79
72570;BME280;60594;50.204;8.844;2023-07-13T10:32:22;100023.00;;;25.03;34.24
72570;BME280;60594;50.204;8.844;2023-07-13T10:34:50;100004.69;;;25.10;34.83
72570;BME280;60594;50.204;8.844;2023-07-13T10:37:27;100001.16;;;25.34;34.41
72570;BME280;60594;50.204;8.844;2023-07-13T10:39:56;99997.38;;;25.59;33.91
72570;BME280;60594;50.204;8.844;2023-07-13T10:42:37;100003.91;;;25.58;34.01
72570;BME280;60594;50.204;8.844;2023-07-13T10:45:19;99997.41;;;25.77;33.29
72570;BME280;60594;50.204;8.844;2023-07-13T10:47:47;100000.69;;;25.61;33.49
72570;BME280;60594;50.204;8.844;2023-07-13T10:50:20;100006.25;;;25.24;34.08
72570;BME280;60594;50.204;8.844;2023-07-13T10:52:53;100004.75;;;25.28;34.22
72570;BME280;60594;50.204;8.844;2023-07-13T10:58:20;100012.41;;;25.44;33.65
72570;BME280;60594;50.204;8.844;2023-07-13T11:00:56;100009.81;;;25.55;34.35
72570;BME280;60594;50.204;8.844;2023-07-13T11:03:27;100003.28;;;25.32;34.52
72570;BME280;60594;50.204;8.844;2023-07-13T11:06:16;100011.25;;;25.33;36.45
72570;BME280;60594;50.204;8.844;2023-07-13T11:14:03;100022.03;;;24.84;34.15
72570;BME280;60594;50.204;8.844;2023-07-13T11:16:36;100018.50;;;24.84;33.82
72570;BME280;60594;50.204;8.844;2023-07-13T11:21:30;100011.00;;;24.16;34.64
72570;BME280;60594;50.204;8.844;2023-07-13T11:26:43;99995.78;;;24.46;36.16
72570;BME280;60594;50.204;8.844;2023-07-13T11:29:27;100006.63;;;24.72;35.42
72570;BME280;60594;50.204;8.844;2023-07-13T11:31:59;99996.94;;;25.07;34.41
72570;BME280;60594;50.204;8.844;2023-07-13T11:34:36;99997.72;;;25.14;33.50
72570;BME280;60594;50.204;8.844;2023-07-13T11:37:11;100008.66;;;24.83;33.66
72570;BME280;60594;50.204;8.844;2023-07-13T11:39:42;100002.25;;;24.58;33.98
72570;BME280;60594;50.204;8.844;2023-07-13T11:42:16;100001.56;;;24.75;34.42
72570;BME280;60594;50.204;8.844;2023-07-13T11:44:46;100000.81;;;24.93;34.41
72570;BME280;60594;50.204;8.844;2023-07-13T11:47:21;100000.22;;;24.91;33.69
72570;BME280;60594;50.204;8.844;2023-07-13T11:49:50;100002.19;;;24.77;35.55
72570;BME280;60594;50.204;8.844;2023-07-13T11:52:32;99995.25;;;24.75;35.05
72570;BME280;60594;50.204;8.844;2023-07-13T11:55:02;100001.34;;;24.77;34.03
72570;BME280;60594;50.204;8.844;2023-07-13T11:57:41;100000.53;;;24.70;34.34
72570;BME280;60594;50.204;8.844;2023-07-13T12:00:13;99999.09;;;24.61;33.25
72570;BME280;60594;50.204;8.844;2023-07-13T12:02:47;100001.72;;;24.43;34.46
72570;BME280;60594;50.204;8.844;2023-07-13T12:05:19;99996.47;;;24.41;34.85
72570;BME280;60594;50.204;8.844;2023-07-13T12:07:47;99999.47;;;24.71;35.58
72570;BME280;60594;50.204;8.844;2023-07-13T12:12:55;100001.63;;;25.24;33.07
72570;BME280;60594;50.204;8.844;2023-07-13T12:15:23;99995.06;;;25.07;32.90
72570;BME280;60594;50.204;8.844;2023-07-13T12:17:50;99996.47;;;24.85;33.81
72570;BME280;60594;50.204;8.844;2023-07-13T12:20:21;100000.38;;;24.65;34.56
72570;BME280;60594;50.204;8.844;2023-07-13T12:22:51;100007.41;;;24.79;34.75
72570;BME280;60594;50.204;8.844;2023-07-13T12:25:18;100002.56;;;24.81;33.88
72570;BME280;60594;50.204;8.844;2023-07-13T12:27:48;100007.41;;;24.79;34.05
72570;BME280;60594;50.204;8.844;2023-07-13T12:30:32;99999.16;;;24.92;34.34
72570;BME280;60594;50.204;8.844;2023-07-13T12:33:07;100000.66;;;25.43;33.05
72570;BME280;60594;50.204;8.844;2023-07-13T12:35:41;100011.13;;;25.46;32.93
72570;BME280;60594;50.204;8.844;2023-07-13T12:38:11;100008.53;;;25.27;32.09
72570;BME280;60594;50.204;8.844;2023-07-13T12:40:38;100005.13;;;25.07;33.25
72570;BME280;60594;50.204;8.844;2023-07-13T12:43:11;100002.63;;;25.05;32.61
72570;BME280;60594;50.204;8.844;2023-07-13T12:45:58;100004.09;;;25.32;32.86
72570;BME280;60594;50.204;8.844;2023-07-13T12:48:24;100008.97;;;25.30;32.79
72570;BME280;60594;50.204;8.844;2023-07-13T12:50:53;100022.66;;;25.17;33.30
72570;BME280;60594;50.204;8.844;2023-07-13T12:53:23;100016.31;;;24.99;33.93
72570;BME280;60594;50.204;8.844;2023-07-13T12:55:54;100009.69;;;24.82;34.17
72570;BME280;60594;50.204;8.844;2023-07-13T13:00:54;100015.56;;;24.79;33.59
72570;BME280;60594;50.204;8.844;2023-07-13T13:03:26;100018.31;;;24.79;34.86
72570;BME280;60594;50.204;8.844;2023-07-13T13:08:50;100011.44;;;25.07;33.61
72570;BME280;60594;50.204;8.844;2023-07-13T13:11:18;100004.97;;;25.02;33.35
72570;BME280;60594;50.204;8.844;2023-07-13T13:13:46;100013.00;;;24.90;33.62
72570;BME280;60594;50.204;8.844;2023-07-13T13:16:34;100022.75;;;24.73;34.43
72570;BME280;60594;50.204;8.844;2023-07-13T13:19:22;100016.50;;;24.60;34.52
72570;BME280;60594;50.204;8.844;2023-07-13T13:21:50;100024.72;;;24.53;34.21
72570;BME280;60594;50.204;8.844;2023-07-13T13:24:22;100026.59;;;24.53;35.82
72570;BME280;60594;50.204;8.844;2023-07-13T13:26:50;100029.09;;;24.54;34.17
72570;BME280;60594;50.204;8.844;2023-07-13T13:29:20;100026.16;;;24.56;34.20
72570;BME280;60594;50.204;8.844;2023-07-13T13:31:47;100027.44;;;24.53;33.56
72570;BME280;60594;50.204;8.844;2023-07-13T13:34:15;100029.41;;;24.27;34.41
72570;BME280;60594;50.204;8.844;2023-07-13T13:36:43;100029.84;;;24.24;34.96
72570;BME280;60594;50.204;8.844;2023-07-13T13:39:25;100031.94;;;24.28;34.54
72570;BME280;60594;50.204;8.844;2023-07-13T13:41:54;100031.94;;;24.28;34.91
72570;BME280;60594;50.204;8.844;2023-07-13T13:44:21;100033.59;;;24.29;35.10